Date,TemperatureHighF,TemperatureAvgF,TemperatureLowF,DewpointHighF,DewpointAvgF,DewpointLowF,HumidityHigh,HumidityAvg,HumidityLow,PressureMaxIn,PressureMinIn,WindSpeedMaxMPH,WindSpeedAvgMPH,GustSpeedMaxMPH,PrecipitationSumIn
2013-3-1,30.2,28.8,27.9,23.0,21.6,20.3,80,74,69,29.32,29.18,17,5,17,0.00
2013-3-2,45.3,30.0,19.4,23.5,18.9,13.6,80,65,40,29.35,29.26,10,4,10,0.00
2013-3-3,53.1,28.0,14.9,26.2,15.8,10.7,89,63,32,29.29,29.21,8,2,8,0.00
2013-3-4,39.4,28.1,17.4,24.2,17.6,10.9,85,65,47,29.23,29.15,12,3,13,0.00
2013-3-5,33.4,31.8,29.5,29.1,25.9,20.7,86,79,63,29.15,28.97,14,5,17,0.00
2013-3-6,35.6,31.5,28.0,29.7,25.2,22.4,91,77,66,29.44,29.15,15,5,15,0.00
2013-3-7,54.3,35.5,26.8,31.5,27.6,22.9,98,76,39,29.56,29.41,9,2,9,0.12
2013-3-8,61.5,35.6,22.1,33.6,24.9,18.2,92,69,34,29.59,29.44,10,2,10,0.00
2013-3-9,43.5,37.2,30.7,32.4,28.9,24.7,90,72,56,29.44,28.97,15,4,15,0.04
2013-3-10,46.6,43.3,41.2,45.5,41.4,31.4,98,94,62,29.00,28.79,13,3,13,0.91
2013-3-11,45.5,38.7,33.4,45.0,38.1,32.4,98,98,96,28.94,28.70,13,2,13,0.08
2013-3-12,46.9,34.5,27.7,32.5,28.0,22.9,97,78,50,29.15,28.94,17,4,17,0.00
2013-3-13,57.7,33.7,23.7,30.1,20.6,13.0,90,62,32,29.47,29.15,13,5,13,0.00
2013-3-14,42.4,32.3,24.8,28.5,23.1,18.1,86,70,47,29.44,29.23,8,3,8,0.00
2013-3-15,45.0,36.1,31.3,35.5,32.0,28.3,95,86,57,29.23,28.91,9,2,9,0.16
2013-3-16,37.4,32.9,30.9,32.2,28.1,22.3,95,83,62,29.23,28.85,11,4,11,0.00
2013-3-17,51.3,33.9,25.7,26.5,19.7,13.8,73,57,38,29.32,29.12,11,4,11,0.00
2013-3-18,35.8,31.8,23.5,31.4,25.3,13.9,86,77,66,29.12,28.73,23,6,23,0.04
2013-3-19,51.1,30.7,21.4,25.1,14.9,10.2,71,53,34,29.18,28.91,24,9,24,0.00
2013-3-20,48.0,27.9,18.9,22.9,11.2,5.7,59,50,34,29.21,29.12,18,7,18,0.00
2013-3-21,58.1,31.5,17.8,28.6,14.9,7.3,69,52,29,29.18,29.12,11,4,12,0.00
2013-3-22,64.2,35.6,21.2,31.0,20.1,14.2,78,57,28,29.21,29.15,9,2,9,0.00
2013-3-23,66.2,36.3,26.1,31.0,23.3,16.4,81,64,26,29.26,29.18,10,2,10,0.00
2013-3-24,41.2,34.5,32.2,26.3,22.7,20.3,77,62,47,29.18,28.82,17,6,17,0.00
2013-3-25,39.4,33.7,30.4,28.5,23.3,20.4,74,65,54,29.23,28.88,14,6,14,0.00
2013-3-26,63.0,40.3,32.9,33.5,25.1,20.8,73,57,32,29.38,29.21,12,4,12,0.00
2013-3-27,48.9,38.5,30.0,27.6,24.2,20.2,76,58,39,29.44,29.38,9,2,11,0.00
2013-3-28,77.0,44.6,27.5,36.8,25.9,21.1,87,54,22,29.47,29.38,10,2,12,0.00
2013-3-29,81.9,48.7,32.4,37.7,26.7,20.1,79,47,20,29.47,29.35,10,2,11,0.00
2013-3-30,65.8,46.1,29.3,36.0,28.9,21.3,80,54,33,29.35,28.97,13,4,13,0.00
2013-3-31,75.6,51.1,37.6,43.2,33.6,21.6,82,55,28,29.06,28.85,20,6,20,0.00